Time;durP1;ratioP1;P1;durP2;ratioP2;P2;SDS_P1;SDS_P2;PMS_P1;PMS_P2;Temp;Humidity;BMP_temperature;BMP_pressure;BME280_temperature;BME280_humidity;BME280_pressure;Samples;Min_cycle;Max_cycle;Signal;HPM_P1;HPM_P2
2023/08/20 00:00:16;;;;;;;14.25;12.82;;;22.10;99.90;;;;;;5058756;28;20013;-65
2023/08/20 00:02:43;;;;;;;14.30;12.82;;;22.10;99.90;;;;;;5059734;28;20449;-63
2023/08/20 00:05:09;;;;;;;14.18;12.77;;;22.10;99.90;;;;;;5061714;28;20024;-64
2023/08/20 00:07:35;;;;;;;15.20;13.70;;;22.10;99.90;;;;;;5059212;28;20037;-64
2023/08/20 00:10:04;;;;;;;18.98;14.45;;;22.20;99.90;;;;;;5060016;28;20119;-64
2023/08/20 00:12:29;;;;;;;14.48;13.00;;;22.20;99.90;;;;;;5060060;28;20020;-64
2023/08/20 00:15:06;;;;;;;14.98;13.57;;;22.20;99.90;;;;;;5056519;28;20380;-64
2023/08/20 00:17:34;;;;;;;14.70;13.20;;;22.20;99.90;;;;;;5059214;28;20032;-64
2023/08/20 00:19:59;;;;;;;14.10;12.70;;;22.30;99.90;;;;;;5053885;28;20714;-64
2023/08/20 00:22:26;;;;;;;14.80;13.30;;;22.30;99.90;;;;;;5057082;28;20045;-64
2023/08/20 00:24:55;;;;;;;14.63;12.77;;;22.30;99.90;;;;;;5059072;28;20358;-64
2023/08/20 00:27:21;;;;;;;14.52;13.02;;;22.40;99.90;;;;;;5057429;28;20024;-65
2023/08/20 00:29:47;;;;;;;12.82;11.63;;;22.40;99.90;;;;;;5061069;28;20036;-65
2023/08/20 00:32:14;;;;;;;14.80;13.40;;;22.40;99.90;;;;;;5059018;28;20024;-65
2023/08/20 00:34:40;;;;;;;13.00;11.70;;;22.40;99.90;;;;;;5059152;28;20170;-65
2023/08/20 00:37:05;;;;;;;14.23;12.85;;;22.40;99.90;;;;;;5058443;28;20103;-64
2023/08/20 00:39:31;;;;;;;14.32;12.82;;;22.40;99.90;;;;;;5059276;28;20028;-64
2023/08/20 00:41:57;;;;;;;14.98;12.75;;;22.40;99.90;;;;;;5058806;28;20048;-64
2023/08/20 00:44:22;;;;;;;13.85;12.57;;;22.40;99.90;;;;;;5055921;28;20120;-64
2023/08/20 00:46:48;;;;;;;13.68;12.27;;;22.50;99.90;;;;;;5050782;28;20327;-65
2023/08/20 00:49:14;;;;;;;12.85;11.65;;;22.50;99.90;;;;;;5053925;28;20373;-64
2023/08/20 00:51:39;;;;;;;13.32;12.13;;;22.50;99.90;;;;;;5050928;28;20047;-65
2023/08/20 00:54:05;;;;;;;13.82;12.43;;;22.50;99.90;;;;;;5054339;28;20048;-64
2023/08/20 00:56:31;;;;;;;15.88;13.50;;;22.50;99.90;;;;;;5054518;28;20043;-63
2023/08/20 00:58:58;;;;;;;13.40;11.93;;;22.40;99.90;;;;;;5054265;28;20140;-63
2023/08/20 01:01:23;;;;;;;14.27;12.88;;;22.50;99.90;;;;;;5060141;28;20027;-64
2023/08/20 01:03:49;;;;;;;13.63;12.32;;;22.40;99.90;;;;;;5040408;28;20404;-64
2023/08/20 01:06:23;;;;;;;14.10;12.57;;;22.40;99.90;;;;;;5058569;28;20024;-65
2023/08/20 01:08:58;;;;;;;13.85;12.55;;;22.40;99.90;;;;;;5058301;28;20036;-64
2023/08/20 01:11:30;;;;;;;14.32;12.93;;;22.40;99.90;;;;;;5058276;28;20063;-64
2023/08/20 01:13:55;;;;;;;14.07;12.70;;;22.40;99.90;;;;;;5053069;28;20028;-62
2023/08/20 01:16:21;;;;;;;13.98;12.50;;;22.40;99.90;;;;;;5058546;28;20040;-65
2023/08/20 01:18:47;;;;;;;13.48;12.18;;;22.40;99.90;;;;;;5057450;28;20113;-64
2023/08/20 01:21:39;;;;;;;13.82;12.07;;;22.30;99.90;;;;;;5057319;28;20112;-64
2023/08/20 01:24:13;;;;;;;14.63;13.15;;;22.30;99.90;;;;;;5055945;28;20085;-65
2023/08/20 01:27:00;;;;;;;13.48;11.82;;;22.30;99.90;;;;;;5052845;28;20158;-58
2023/08/20 01:29:26;;;;;;;;;;;22.30;99.90;;;;;;5058010;28;20111;-59
2023/08/20 01:31:54;;;;;;;12.25;10.95;;;22.30;99.90;;;;;;5057836;28;19991;-60
2023/08/20 01:34:20;;;;;;;12.02;10.93;;;22.20;99.90;;;;;;5057936;28;20028;-59
2023/08/20 01:36:46;;;;;;;13.75;12.45;;;22.30;99.90;;;;;;5058764;28;20055;-59
2023/08/20 01:39:11;;;;;;;12.93;11.73;;;22.30;99.90;;;;;;5054125;28;20256;-59
2023/08/20 01:41:37;;;;;;;12.77;11.50;;;22.30;99.90;;;;;;5056286;28;20040;-59
2023/08/20 01:44:02;;;;;;;14.45;12.63;;;22.30;99.90;;;;;;5059713;28;20038;-60
2023/08/20 01:46:28;;;;;;;13.43;12.13;;;22.30;99.90;;;;;;5059876;28;20173;-60
2023/08/20 01:48:53;;;;;;;14.30;12.65;;;22.20;99.90;;;;;;5059835;28;20395;-59
2023/08/20 01:51:19;;;;;;;15.23;13.73;;;22.20;99.90;;;;;;5059593;28;20021;-59
2023/08/20 02:00:30;;;;;;;15.40;13.82;;;22.00;99.90;;;;;;5058424;28;20028;-60
2023/08/20 02:02:55;;;;;;;15.88;14.25;;;21.90;99.90;;;;;;5059375;28;20108;-59
2023/08/20 02:05:21;;;;;;;17.30;12.02;;;21.80;99.90;;;;;;5059716;28;20162;-59
2023/08/20 02:07:46;;;;;;;14.48;12.85;;;21.70;99.90;;;;;;5059390;28;20092;-59
2023/08/20 02:10:12;;;;;;;14.90;13.43;;;21.70;99.90;;;;;;5061064;28;20028;-59
2023/08/20 02:12:37;;;;;;;14.38;12.98;;;21.70;99.90;;;;;;5041321;28;20399;-59
2023/08/20 02:15:03;;;;;;;15.38;13.63;;;21.60;99.90;;;;;;5052641;28;20024;-61
2023/08/20 02:17:29;;;;;;;16.25;14.57;;;21.60;99.90;;;;;;5058945;28;20068;-61
2023/08/20 02:19:54;;;;;;;19.77;14.98;;;21.50;99.90;;;;;;5055154;28;20029;-60
2023/08/20 02:22:20;;;;;;;15.50;13.75;;;21.40;99.90;;;;;;5061278;28;20115;-61
2023/08/20 02:24:46;;;;;;;15.43;13.82;;;21.40;99.90;;;;;;5059345;28;20020;-59
2023/08/20 02:27:11;;;;;;;15.02;13.57;;;21.40;99.90;;;;;;5059585;28;20036;-59
2023/08/20 02:29:37;;;;;;;15.80;14.30;;;21.30;99.90;;;;;;5059136;28;20089;-57
2023/08/20 02:32:02;;;;;;;15.35;13.85;;;21.20;99.90;;;;;;5059120;28;20033;-57
2023/08/20 02:34:28;;;;;;;14.82;13.18;;;21.20;99.90;;;;;;5059251;28;20582;-59
2023/08/20 02:36:54;;;;;;;14.32;12.90;;;21.20;99.90;;;;;;5059250;28;20387;-58
2023/08/20 02:39:20;;;;;;;14.15;12.73;;;21.10;99.90;;;;;;5061311;28;20020;-59
2023/08/20 02:41:46;;;;;;;14.25;12.75;;;21.10;99.90;;;;;;5054556;28;20028;-59
2023/08/20 02:44:12;;;;;;;15.48;13.88;;;21.10;99.90;;;;;;5055028;28;20399;-58
2023/08/20 02:46:38;;;;;;;15.65;14.15;;;21.00;99.90;;;;;;5058741;28;20082;-57
2023/08/20 02:49:03;;;;;;;16.17;13.27;;;21.00;99.90;;;;;;5054857;28;20028;-57
2023/08/20 02:51:29;;;;;;;14.50;13.05;;;20.90;99.90;;;;;;5059011;28;20518;-58
2023/08/20 02:53:54;;;;;;;14.35;12.95;;;20.90;99.90;;;;;;5060595;28;20048;-57
2023/08/20 02:56:20;;;;;;;14.60;13.20;;;20.90;99.90;;;;;;5059033;28;20548;-58
2023/08/20 02:58:46;;;;;;;14.85;13.35;;;20.80;99.90;;;;;;5058703;28;20043;-58
2023/08/20 03:01:23;;;;;;;14.57;13.00;;;20.80;99.90;;;;;;5059156;28;20017;-58
2023/08/20 03:03:48;;;;;;;16.05;14.32;;;20.80;99.90;;;;;;5058792;28;20036;-58
2023/08/20 03:06:14;;;;;;;16.88;14.73;;;20.80;99.90;;;;;;5059059;28;20043;-57
2023/08/20 03:08:39;;;;;;;14.38;12.88;;;20.80;99.90;;;;;;5058877;28;20024;-58
2023/08/20 03:11:05;;;;;;;14.73;13.20;;;20.80;99.90;;;;;;5062325;28;20036;-56
2023/08/20 03:13:30;;;;;;;16.10;14.07;;;20.80;99.90;;;;;;5064531;28;20028;-57
2023/08/20 03:15:56;;;;;;;16.98;15.23;;;20.80;99.90;;;;;;5058685;28;20456;-57
2023/08/20 03:18:21;;;;;;;17.90;16.10;;;20.80;99.90;;;;;;5044714;28;20120;-58
2023/08/20 03:20:47;;;;;;;16.50;14.68;;;20.90;99.90;;;;;;5062756;28;20028;-59
2023/08/20 03:23:12;;;;;;;14.73;13.07;;;20.90;99.90;;;;;;5062602;28;20458;-57
2023/08/20 03:25:38;;;;;;;16.05;14.35;;;20.90;99.90;;;;;;5059918;28;20060;-58
2023/08/20 03:28:04;;;;;;;14.98;13.57;;;21.00;99.90;;;;;;5064730;28;20736;-58
2023/08/20 03:30:29;;;;;;;15.43;13.98;;;20.90;99.90;;;;;;5062506;28;20032;-58
2023/08/20 03:32:55;;;;;;;15.13;13.55;;;21.00;99.90;;;;;;5062662;28;20361;-56
2023/08/20 03:35:20;;;;;;;15.13;13.60;;;21.00;99.90;;;;;;5062225;28;20078;-57
2023/08/20 03:37:46;;;;;;;15.43;13.80;;;21.00;99.90;;;;;;5058325;28;20396;-57
2023/08/20 03:40:11;;;;;;;15.88;14.10;;;21.00;99.90;;;;;;5063673;28;20051;-59
2023/08/20 03:42:37;;;;;;;17.25;13.55;;;21.00;99.90;;;;;;5063919;28;20538;-57
2023/08/20 03:45:03;;;;;;;16.42;13.98;;;21.00;99.90;;;;;;5062468;28;20049;-58
2023/08/20 03:47:28;;;;;;;14.57;13.18;;;21.00;99.90;;;;;;5061792;28;20032;-59
2023/08/20 03:49:54;;;;;;;14.07;12.20;;;21.00;99.90;;;;;;5062305;28;20039;-58
2023/08/20 03:52:19;;;;;;;14.27;12.63;;;21.00;99.90;;;;;;5061774;28;20089;-59
2023/08/20 03:54:45;;;;;;;13.15;11.82;;;21.10;99.90;;;;;;5062350;28;20488;-58
2023/08/20 03:57:11;;;;;;;14.70;13.07;;;21.00;99.90;;;;;;5063717;28;20021;-59
2023/08/20 03:59:36;;;;;;;14.70;12.98;;;21.10;99.90;;;;;;5041897;28;20040;-59
2023/08/20 04:02:02;;;;;;;14.93;12.45;;;21.00;99.90;;;;;;5061312;28;20024;-57
2023/08/20 04:04:28;;;;;;;12.50;11.30;;;21.10;99.90;;;;;;5061656;28;20490;-57
2023/08/20 04:06:53;;;;;;;13.77;12.35;;;21.00;99.90;;;;;;5062226;28;20025;-57
2023/08/20 04:09:19;;;;;;;12.68;11.43;;;21.10;99.90;;;;;;5061724;28;20625;-57
2023/08/20 04:11:44;;;;;;;14.82;13.23;;;21.10;99.90;;;;;;5063796;28;20391;-58
2023/08/20 04:14:10;;;;;;;14.77;12.70;;;21.10;99.90;;;;;;5058516;28;20032;-58
2023/08/20 04:16:35;;;;;;;15.45;12.18;;;21.10;99.90;;;;;;5057147;28;20094;-58
2023/08/20 04:19:01;;;;;;;17.45;12.13;;;21.10;99.90;;;;;;5055229;28;20039;-57
2023/08/20 04:21:26;;;;;;;13.73;12.30;;;21.10;99.90;;;;;;5050044;28;20046;-56
2023/08/20 04:23:52;;;;;;;16.10;13.48;;;21.10;99.90;;;;;;5061382;28;20064;-58
2023/08/20 04:26:18;;;;;;;14.07;12.55;;;21.10;99.90;;;;;;5060969;28;20059;-57
2023/08/20 04:28:43;;;;;;;13.77;12.15;;;21.20;99.90;;;;;;5063131;28;20028;-56
2023/08/20 04:31:08;;;;;;;14.23;12.43;;;21.20;99.90;;;;;;5060769;28;20021;-58
2023/08/20 04:33:34;;;;;;;14.32;11.25;;;21.20;99.90;;;;;;5061559;28;20043;-59
2023/08/20 04:35:59;;;;;;;12.57;11.30;;;21.20;99.90;;;;;;5059520;28;20021;-59
2023/08/20 04:38:25;;;;;;;13.10;11.65;;;21.20;99.90;;;;;;5061205;28;20036;-56
2023/08/20 04:40:50;;;;;;;11.57;10.50;;;21.20;99.90;;;;;;5063308;28;20490;-57
2023/08/20 04:43:16;;;;;;;12.95;11.55;;;21.40;99.90;;;;;;5043994;28;20710;-57
2023/08/20 04:45:42;;;;;;;12.65;11.38;;;21.60;99.90;;;;;;5043410;28;20036;-58
2023/08/20 04:48:08;;;;;;;11.15;10.07;;;21.90;99.90;;;;;;5061119;28;20025;-58
2023/08/20 04:50:33;;;;;;;15.52;12.18;;;22.30;99.90;;;;;;5061095;28;20180;-57
2023/08/20 04:52:59;;;;;;;11.52;10.38;;;22.70;99.90;;;;;;5060773;28;20125;-57
2023/08/20 04:55:25;;;;;;;11.60;9.63;;;23.30;99.90;;;;;;5062919;28;20391;-57
2023/08/20 04:57:51;;;;;;;12.52;10.05;;;24.00;99.90;;;;;;5060977;28;20021;-57
2023/08/20 05:00:16;;;;;;;13.93;10.05;;;24.60;99.90;;;;;;5057633;28;20524;-58
2023/08/20 05:02:42;;;;;;;9.40;8.60;;;25.30;99.90;;;;;;5055425;28;20037;-58
2023/08/20 05:05:08;;;;;;;12.02;8.85;;;26.00;99.90;;;;;;5060239;28;20029;-58
2023/08/20 05:07:33;;;;;;;10.93;8.63;;;26.60;99.90;;;;;;5055840;28;20029;-57
2023/08/20 05:09:58;;;;;;;9.25;7.90;;;27.20;98.10;;;;;;5054382;28;20371;-58
2023/08/20 05:12:24;;;;;;;9.55;8.63;;;27.70;97.40;;;;;;5056102;28;20348;-58
2023/08/20 05:14:49;;;;;;;9.57;8.52;;;28.30;94.90;;;;;;5052442;28;20403;-58
2023/08/20 05:17:15;;;;;;;8.45;7.60;;;28.90;93.30;;;;;;5060030;28;20051;-59
2023/08/20 05:19:40;;;;;;;7.95;7.20;;;29.50;92.40;;;;;;5060424;28;20036;-58
2023/08/20 05:22:06;;;;;;;9.23;7.28;;;30.10;90.60;;;;;;5060208;28;20094;-58
2023/08/20 05:24:31;;;;;;;7.95;7.25;;;30.60;89.00;;;;;;5042248;28;20075;-59
2023/08/20 05:27:08;;;;;;;8.00;7.20;;;30.70;85.90;;;;;;5061715;28;20109;-59
2023/08/20 05:29:33;;;;;;;7.40;6.68;;;31.10;75.80;;;;;;5061809;28;20040;-59
2023/08/20 05:31:59;;;;;;;7.78;6.63;;;31.50;81.40;;;;;;5059782;28;20024;-59
2023/08/20 05:34:24;;;;;;;7.15;6.45;;;31.90;79.00;;;;;;5059914;28;20368;-59
2023/08/20 05:36:50;;;;;;;6.70;6.10;;;32.30;76.10;;;;;;5059882;28;20040;-58
2023/08/20 05:39:15;;;;;;;7.13;6.43;;;32.70;75.00;;;;;;5059824;28;20056;-58
2023/08/20 05:41:41;;;;;;;6.70;5.55;;;32.90;72.10;;;;;;5059632;28;20025;-57
2023/08/20 05:44:06;;;;;;;6.13;5.20;;;33.30;71.10;;;;;;5060032;28;20437;-58
2023/08/20 05:46:32;;;;;;;7.30;6.22;;;33.60;69.00;;;;;;5052361;28;20048;-58
2023/08/20 05:48:57;;;;;;;6.90;6.25;;;33.40;63.00;;;;;;5053329;28;20047;-58
2023/08/20 05:51:23;;;;;;;5.57;5.07;;;33.60;64.30;;;;;;5053494;28;20025;-58
2023/08/20 05:53:48;;;;;;;6.30;5.70;;;34.10;64.00;;;;;;5050999;28;20136;-58
2023/08/20 05:56:14;;;;;;;6.22;5.35;;;34.40;61.80;;;;;;5055187;28;20020;-58
2023/08/20 05:58:39;;;;;;;6.32;5.70;;;34.90;60.40;;;;;;5053323;28;20346;-58
2023/08/20 06:01:05;;;;;;;5.97;5.00;;;34.90;58.90;;;;;;5052067;28;20044;-58
2023/08/20 06:03:30;;;;;;;5.97;4.82;;;35.00;57.70;;;;;;5054429;28;20404;-58
2023/08/20 06:05:58;;;;;;;6.28;5.55;;;35.30;56.40;;;;;;5054660;28;20035;-58
2023/08/20 06:08:23;;;;;;;4.80;4.35;;;35.40;53.10;;;;;;5059179;28;20508;-58
2023/08/20 06:10:49;;;;;;;5.43;4.63;;;35.60;53.60;;;;;;5059153;28;20025;-58
2023/08/20 06:13:15;;;;;;;5.03;4.53;;;36.10;52.30;;;;;;5061541;28;20028;-58
2023/08/20 06:15:40;;;;;;;4.72;4.32;;;36.70;51.00;;;;;;5053405;28;20111;-59
2023/08/20 06:18:06;;;;;;;6.22;4.75;;;37.20;49.00;;;;;;5059512;28;20036;-59
2023/08/20 06:20:32;;;;;;;5.65;4.50;;;37.60;47.10;;;;;;5059433;28;20051;-58
2023/08/20 06:22:57;;;;;;;5.25;4.75;;;37.90;45.20;;;;;;5059329;28;20036;-58
2023/08/20 06:25:23;;;;;;;5.55;5.05;;;38.30;35.70;;;;;;5059364;28;20021;-58
2023/08/20 06:27:48;;;;;;;5.47;4.97;;;38.30;41.50;;;;;;5062006;28;20472;-59
2023/08/20 06:30:14;;;;;;;5.80;4.65;;;38.30;39.40;;;;;;5059302;28;20032;-58
2023/08/20 06:32:39;;;;;;;5.97;5.47;;;37.20;40.20;;;;;;5058962;28;20031;-58
2023/08/20 06:35:05;;;;;;;6.70;6.00;;;35.70;38.50;;;;;;5059648;28;20104;-57
2023/08/20 06:37:31;;;;;;;5.88;5.38;;;34.40;43.40;;;;;;5059003;28;20036;-58
2023/08/20 06:39:56;;;;;;;6.32;5.70;;;34.10;44.60;;;;;;5059268;28;20502;-58
2023/08/20 06:42:22;;;;;;;6.55;5.85;;;33.80;44.80;;;;;;5060880;28;20066;-58
2023/08/20 06:44:47;;;;;;;10.35;5.18;;;33.50;45.30;;;;;;5055720;28;20021;-60
2023/08/20 06:47:14;;;;;;;5.57;5.15;;;32.90;46.40;;;;;;5057939;28;20025;-59
2023/08/20 06:49:40;;;;;;;6.30;4.97;;;32.50;47.50;;;;;;5059068;28;20027;-58
2023/08/20 06:52:05;;;;;;;6.05;5.45;;;32.10;48.40;;;;;;5059095;28;20028;-58
2023/08/20 06:54:31;;;;;;;6.63;5.88;;;32.20;48.50;;;;;;5038795;28;20523;-57
2023/08/20 06:56:56;;;;;;;6.32;5.72;;;32.60;48.00;;;;;;5050558;28;20040;-57
2023/08/20 06:59:23;;;;;;;7.93;6.10;;;32.60;47.90;;;;;;5057293;28;20059;-58
2023/08/20 07:01:48;;;;;;;6.28;5.32;;;32.30;48.20;;;;;;5052615;28;20031;-58
2023/08/20 07:04:14;;;;;;;6.93;6.20;;;32.00;49.10;;;;;;5055861;28;20033;-59
2023/08/20 07:06:39;;;;;;;6.10;5.53;;;31.50;50.10;;;;;;5052240;28;20448;-59
2023/08/20 07:09:05;;;;;;;7.03;6.43;;;31.80;50.50;;;;;;5051310;28;20029;-58
2023/08/20 07:11:30;;;;;;;6.15;5.55;;;32.40;49.90;;;;;;5053753;28;20060;-58
2023/08/20 07:13:56;;;;;;;6.55;5.95;;;33.10;48.60;;;;;;5049216;28;20036;-57
2023/08/20 07:16:21;;;;;;;6.25;5.65;;;33.10;48.20;;;;;;5048914;28;20063;-58
2023/08/20 07:18:47;;;;;;;6.53;5.82;;;32.60;48.90;;;;;;5056632;28;20025;-58
2023/08/20 07:21:12;;;;;;;6.97;6.38;;;32.10;49.30;;;;;;5052672;28;20032;-58
2023/08/20 07:23:38;;;;;;;6.90;6.10;;;31.60;50.50;;;;;;5056370;28;20688;-57
2023/08/20 07:26:05;;;;;;;5.88;5.28;;;31.30;51.40;;;;;;5057642;28;20029;-57
2023/08/20 07:31:15;;;;;;;7.50;6.38;;;31.40;52.30;;;;;;5056005;28;20047;-60
2023/08/20 07:33:41;;;;;;;6.68;5.90;;;32.00;51.50;;;;;;5056203;28;20032;-59
2023/08/20 07:36:06;;;;;;;6.53;5.82;;;32.40;50.50;;;;;;5056475;28;20016;-58
2023/08/20 07:38:32;;;;;;;6.53;5.85;;;32.60;50.00;;;;;;5058362;28;20028;-60
2023/08/20 07:40:57;;;;;;;7.15;5.57;;;32.60;49.90;;;;;;5034487;28;20021;-60
2023/08/20 07:43:24;;;;;;;6.20;5.60;;;33.00;49.70;;;;;;5034271;28;20024;-59
2023/08/20 07:45:49;;;;;;;6.93;6.22;;;33.00;49.00;;;;;;5054070;28;20111;-59
2023/08/20 07:48:15;;;;;;;6.40;5.85;;;33.30;49.10;;;;;;5056541;28;20439;-60
2023/08/20 07:50:40;;;;;;;6.55;5.68;;;34.00;47.50;;;;;;5056439;28;20029;-58
2023/08/20 07:53:06;;;;;;;5.78;5.28;;;34.90;45.80;;;;;;5057408;28;20435;-59
2023/08/20 07:55:31;;;;;;;6.70;6.10;;;35.50;44.20;;;;;;5053345;28;20032;-60
2023/08/20 07:57:57;;;;;;;5.88;5.28;;;35.90;42.80;;;;;;5052447;28;20020;-59
2023/08/20 08:00:22;;;;;;;5.45;5.05;;;36.30;41.70;;;;;;5051551;28;20032;-59
2023/08/20 08:02:48;;;;;;;5.45;4.93;;;36.50;39.60;;;;;;5057044;28;20406;-59
2023/08/20 08:05:14;;;;;;;5.75;5.18;;;36.10;41.20;;;;;;5051598;28;20104;-58
2023/08/20 08:07:39;;;;;;;5.65;5.15;;;35.90;41.30;;;;;;5058743;28;20047;-59
2023/08/20 08:10:05;;;;;;;6.68;5.32;;;36.00;41.00;;;;;;5055908;28;20504;-59
2023/08/20 08:12:31;;;;;;;5.95;5.45;;;35.60;40.80;;;;;;5053789;28;20487;-59
2023/08/20 08:14:57;;;;;;;6.75;4.80;;;35.80;41.00;;;;;;5053386;28;20017;-58
2023/08/20 08:17:22;;;;;;;5.00;4.60;;;36.00;40.40;;;;;;5059689;28;20154;-59
2023/08/20 08:19:48;;;;;;;6.18;5.43;;;36.00;40.10;;;;;;5060905;28;20442;-58
2023/08/20 08:22:14;;;;;;;5.72;5.22;;;35.90;39.80;;;;;;5042822;28;20024;-59
2023/08/20 08:24:41;;;;;;;5.78;5.28;;;35.50;39.40;;;;;;5056207;28;20107;-59
2023/08/20 08:27:07;;;;;;;6.03;5.35;;;35.10;39.40;;;;;;5055701;28;20119;-59
2023/08/20 08:29:32;;;;;;;6.72;5.60;;;34.70;39.70;;;;;;5055681;28;20119;-59
2023/08/20 08:31:58;;;;;;;5.38;4.97;;;34.70;39.90;;;;;;5057858;28;20033;-59
2023/08/20 08:34:23;;;;;;;5.65;5.10;;;34.70;40.20;;;;;;5057186;28;20614;-60
2023/08/20 08:36:49;;;;;;;6.07;4.72;;;34.60;40.70;;;;;;5056473;28;20078;-60
2023/08/20 08:39:14;;;;;;;5.43;5.03;;;34.80;40.60;;;;;;5059095;28;20082;-59
2023/08/20 08:41:42;;;;;;;5.85;5.30;;;34.80;40.20;;;;;;5053874;28;20058;-60
2023/08/20 08:44:09;;;;;;;6.43;5.38;;;34.10;40.30;;;;;;5055419;28;20241;-59
2023/08/20 08:46:36;;;;;;;5.85;5.35;;;33.80;40.70;;;;;;5057469;28;20036;-60
2023/08/20 08:49:03;;;;;;;5.95;5.32;;;33.80;41.00;;;;;;5054413;28;20025;-59
2023/08/20 08:51:29;;;;;;;5.82;5.32;;;33.70;40.90;;;;;;5054678;28;20082;-59
2023/08/20 08:57:17;;;;;;;5.57;4.85;;;33.50;40.20;;;;;;5050504;28;20429;-59
2023/08/20 08:59:43;;;;;;;5.43;4.90;;;33.50;41.50;;;;;;5054869;28;20032;-60
2023/08/20 09:02:11;;;;;;;5.97;5.40;;;33.50;41.80;;;;;;5051806;28;20052;-59
2023/08/20 09:04:42;;;;;;;6.13;5.53;;;33.50;42.10;;;;;;5054421;28;20442;-59
2023/08/20 09:07:15;;;;;;;5.60;5.10;;;33.60;42.20;;;;;;5050108;28;20110;-60
2023/08/20 09:09:45;;;;;;;4.85;4.45;;;33.50;42.30;;;;;;5051649;28;20155;-60
2023/08/20 09:12:16;;;;;;;4.95;4.45;;;33.60;43.20;;;;;;5050224;28;20030;-60
2023/08/20 09:14:49;;;;;;;6.18;5.53;;;33.60;43.40;;;;;;5042119;28;20025;-60
2023/08/20 09:17:15;;;;;;;5.72;4.72;;;33.70;42.90;;;;;;5047661;28;20423;-60
2023/08/20 09:19:44;;;;;;;7.43;5.45;;;34.00;42.70;;;;;;5053589;28;20051;-60
2023/08/20 09:22:12;;;;;;;7.25;5.43;;;34.00;42.00;;;;;;5051150;28;20032;-60
2023/08/20 09:24:44;;;;;;;6.10;4.97;;;34.10;42.40;;;;;;5054687;28;20032;-61
2023/08/20 09:27:11;;;;;;;5.13;4.65;;;34.10;41.40;;;;;;5053123;28;20029;-61
2023/08/20 09:29:48;;;;;;;5.25;4.72;;;34.20;41.90;;;;;;5059695;28;20279;-60
2023/08/20 09:32:27;;;;;;;5.70;4.75;;;34.40;41.00;;;;;;5055071;28;20115;-59
2023/08/20 09:34:54;;;;;;;5.53;4.70;;;34.70;39.80;;;;;;5059340;28;20041;-60
2023/08/20 09:37:21;;;;;;;7.47;5.07;;;34.70;40.00;;;;;;5056837;28;20472;-60
2023/08/20 09:39:47;;;;;;;5.45;4.95;;;34.70;39.20;;;;;;5057580;28;20056;-60
2023/08/20 09:42:13;;;;;;;5.90;4.97;;;34.70;38.70;;;;;;5058365;28;20060;-59
2023/08/20 09:44:41;;;;;;;6.45;5.38;;;34.70;38.30;;;;;;5059561;28;20553;-59
2023/08/20 09:47:09;;;;;;;5.53;5.03;;;34.70;38.20;;;;;;5054767;28;20484;-59
2023/08/20 09:49:40;;;;;;;5.28;4.78;;;34.70;38.30;;;;;;5061318;28;20335;-59
2023/08/20 09:52:07;;;;;;;5.32;4.82;;;34.60;38.40;;;;;;5056929;28;20478;-60
2023/08/20 09:54:50;;;;;;;5.88;5.38;;;34.70;38.50;;;;;;5043087;28;20051;-60
2023/08/20 09:57:29;;;;;;;7.65;5.22;;;34.60;38.20;;;;;;5058141;28;20382;-60
2023/08/20 09:59:55;;;;;;;5.93;5.32;;;34.60;38.00;;;;;;5058826;28;20529;-60
2023/08/20 10:02:21;;;;;;;6.15;5.18;;;34.50;38.60;;;;;;5054026;28;20024;-60
2023/08/20 10:04:48;;;;;;;5.53;5.03;;;34.50;38.70;;;;;;5054924;28;20129;-60
2023/08/20 10:07:14;;;;;;;5.68;5.07;;;34.60;37.80;;;;;;5057939;28;20366;-60
2023/08/20 10:09:42;;;;;;;5.95;5.03;;;34.50;37.90;;;;;;5058803;28;20279;-60
2023/08/20 10:12:07;;;;;;;6.28;4.90;;;34.50;37.70;;;;;;5059623;28;20388;-59
2023/08/20 10:17:57;;;;;;;6.03;5.22;;;34.30;37.60;;;;;;5056342;28;20097;-60
2023/08/20 10:20:23;;;;;;;6.13;5.53;;;34.20;37.30;;;;;;5057649;28;20031;-59
2023/08/20 10:22:51;;;;;;;6.10;5.53;;;34.10;37.20;;;;;;5059969;28;20032;-60
2023/08/20 10:25:26;;;;;;;6.32;5.78;;;34.00;37.50;;;;;;5057697;28;20028;-58
2023/08/20 10:27:53;;;;;;;6.95;6.35;;;33.90;38.40;;;;;;5055883;28;20487;-58
2023/08/20 10:30:25;;;;;;;6.28;5.55;;;33.80;38.20;;;;;;5032539;28;20468;-58
2023/08/20 10:32:56;;;;;;;6.57;5.97;;;33.80;38.50;;;;;;5055028;28;20093;-56
2023/08/20 10:35:46;;;;;;;7.00;6.25;;;33.60;38.90;;;;;;5050799;28;20556;-57
2023/08/20 10:38:13;;;;;;;6.22;5.63;;;33.50;40.60;;;;;;5051466;28;20091;-58
2023/08/20 10:40:58;;;;;;;6.75;6.05;;;33.30;40.10;;;;;;5050306;28;20032;-58
2023/08/20 10:43:40;;;;;;;7.07;6.18;;;33.30;40.80;;;;;;5051529;28;20474;-58
2023/08/20 10:46:14;;;;;;;6.88;6.20;;;33.30;40.50;;;;;;5053130;28;20055;-58
2023/08/20 10:48:40;;;;;;;8.35;6.50;;;33.20;40.20;;;;;;5059268;28;20024;-57
2023/08/20 10:51:14;;;;;;;8.98;5.85;;;33.00;40.60;;;;;;5056179;28;20075;-57
2023/08/20 10:53:42;;;;;;;7.47;6.60;;;32.80;41.70;;;;;;5058791;28;20708;-56
2023/08/20 10:56:10;;;;;;;6.88;6.28;;;32.60;41.30;;;;;;5055500;28;20114;-57
2023/08/20 10:58:37;;;;;;;6.93;6.22;;;32.50;41.20;;;;;;5051185;28;20036;-56
2023/08/20 11:01:17;;;;;;;8.38;6.25;;;32.40;41.80;;;;;;5050927;28;20024;-57
2023/08/20 11:03:44;;;;;;;7.20;6.50;;;32.30;42.70;;;;;;5055007;28;20399;-57
2023/08/20 11:06:11;;;;;;;7.85;6.38;;;32.20;42.40;;;;;;5055883;28;20430;-57
2023/08/20 11:08:37;;;;;;;6.95;6.25;;;32.30;42.30;;;;;;5058968;28;20024;-57
2023/08/20 11:11:03;;;;;;;6.25;5.65;;;32.20;42.40;;;;;;5055558;28;20031;-57
2023/08/20 11:13:32;;;;;;;6.22;5.63;;;32.20;42.70;;;;;;5059017;28;20103;-57
2023/08/20 11:15:58;;;;;;;5.68;5.05;;;32.00;42.70;;;;;;5047852;28;20071;-57
2023/08/20 11:18:25;;;;;;;8.98;5.80;;;32.00;42.80;;;;;;5061135;28;20044;-57
2023/08/20 11:20:50;;;;;;;6.18;5.57;;;31.90;42.70;;;;;;5055372;28;20016;-57
2023/08/20 11:23:16;;;;;;;6.38;5.70;;;31.90;42.90;;;;;;5059256;28;20209;-57
2023/08/20 11:25:43;;;;;;;6.10;5.50;;;31.70;43.20;;;;;;5048459;28;20029;-58
2023/08/20 11:28:09;;;;;;;7.85;5.80;;;31.70;42.60;;;;;;5051742;28;20531;-56
2023/08/20 11:30:35;;;;;;;6.07;5.55;;;31.60;42.60;;;;;;5052305;28;20044;-57
2023/08/20 11:33:00;;;;;;;5.93;5.32;;;31.60;42.80;;;;;;5056581;28;20024;-57
2023/08/20 11:35:26;;;;;;;6.75;6.05;;;31.40;43.40;;;;;;5056419;28;20029;-57
2023/08/20 11:37:52;;;;;;;5.97;5.47;;;31.40;43.70;;;;;;5058603;28;20565;-57
2023/08/20 11:40:21;;;;;;;5.97;5.38;;;31.30;43.60;;;;;;5052218;28;20029;-57
2023/08/20 11:42:46;;;;;;;7.85;5.55;;;31.40;43.70;;;;;;5055005;28;20043;-57
2023/08/20 11:45:12;;;;;;;5.82;5.22;;;31.40;43.70;;;;;;5054998;28;20092;-57
2023/08/20 11:47:42;;;;;;;6.57;5.20;;;31.50;43.40;;;;;;5059679;28;20028;-57
2023/08/20 11:50:08;;;;;;;5.97;4.82;;;31.50;43.50;;;;;;5057819;28;20032;-57
2023/08/20 11:52:36;;;;;;;5.35;4.85;;;31.50;43.20;;;;;;5057789;28;20495;-58
2023/08/20 11:55:03;;;;;;;5.60;4.93;;;31.60;43.00;;;;;;5063377;28;20119;-57
2023/08/20 11:57:29;;;;;;;5.40;4.55;;;31.60;42.90;;;;;;5060272;28;20104;-57
2023/08/20 11:59:56;;;;;;;4.97;4.00;;;31.60;42.80;;;;;;5062100;28;20107;-57
2023/08/20 12:02:27;;;;;;;5.40;3.95;;;31.50;42.60;;;;;;5040814;28;20585;-57
2023/08/20 12:04:56;;;;;;;3.50;3.20;;;31.50;41.40;;;;;;5062297;28;20039;-58
2023/08/20 12:07:26;;;;;;;5.35;4.50;;;31.40;41.20;;;;;;5061183;28;20032;-58
2023/08/20 12:09:51;;;;;;;4.07;3.63;;;31.30;40.90;;;;;;5062068;28;20361;-58
2023/08/20 12:12:20;;;;;;;5.03;3.65;;;31.10;41.60;;;;;;5061259;28;20051;-57
2023/08/20 12:14:46;;;;;;;4.40;3.45;;;31.10;41.40;;;;;;5056340;28;20056;-58
2023/08/20 12:17:11;;;;;;;4.28;3.60;;;31.00;41.10;;;;;;5057164;28;20051;-57
2023/08/20 12:19:37;;;;;;;3.60;3.30;;;30.90;40.70;;;;;;5062245;28;20051;-58
2023/08/20 12:22:03;;;;;;;3.58;2.70;;;30.90;40.70;;;;;;5059315;28;20029;-57
2023/08/20 12:24:29;;;;;;;3.25;2.80;;;30.90;40.10;;;;;;5054390;28;20571;-59
2023/08/20 12:26:55;;;;;;;3.80;3.00;;;30.80;39.40;;;;;;5054944;28;20103;-56
2023/08/20 12:29:20;;;;;;;2.90;2.60;;;30.90;39.00;;;;;;5053857;28;20391;-58
2023/08/20 12:31:46;;;;;;;2.80;2.60;;;30.90;39.30;;;;;;5055447;28;20097;-58
2023/08/20 12:34:11;;;;;;;3.22;2.92;;;30.90;39.20;;;;;;5059126;28;20150;-57
2023/08/20 12:36:37;;;;;;;2.65;2.45;;;30.80;38.40;;;;;;5055129;28;20475;-57
2023/08/20 12:39:04;;;;;;;1.98;1.88;;;30.80;38.70;;;;;;5053711;28;20284;-58
2023/08/20 12:41:30;;;;;;;3.17;2.38;;;30.80;38.80;;;;;;5051856;28;20039;-58
2023/08/20 12:43:56;;;;;;;2.28;2.08;;;30.80;38.40;;;;;;5060863;28;20062;-59
2023/08/20 12:46:21;;;;;;;2.75;2.53;;;30.70;38.30;;;;;;5059571;28;20440;-58
2023/08/20 12:48:47;;;;;;;2.33;2.13;;;30.70;38.20;;;;;;5043743;28;20522;-57
2023/08/20 12:51:13;;;;;;;3.78;2.03;;;30.70;38.10;;;;;;5053744;28;20408;-57